KSLK/SLK METAR and TAF weather

Enter ICAO airport designator
Station Type Date Time Source
KSLK METAR 2020/01/29 12:51 UTC NOAA

KSLK 291251Z AUTO 33003KT 10SM OVC010 M10/M12 A3002 RMK AO2 CIG 008V013 SLP197 T11001122


Station Type Date Time Source
KSLK Decoded METAR 2020/01/29 12:51 UTC NOAA

ADIRONDACK REGIONAL AIRPORT, NY, United States (KSLK) 44-24N 074-12W 498M
Jan 29, 2020 - 07:51 AM EST / 2020.01.29 1251 UTC
Wind: from the NNW (330 degrees) at 3 MPH (3 KT):0
Visibility: 10 mile(s):0
Sky conditions: overcast
Temperature: 14.0 F (-10.0 C)
Dew Point: 10.0 F (-12.2 C)
Relative Humidity: 83%
Pressure (altimeter): 30.02 in. Hg (1016 hPa)
ob: KSLK 291251Z AUTO 33003KT 10SM OVC010 M10/M12 A3002 RMK AO2 CIG 008V013 SLP197 T11001122
cycle: 13

Station Type Date Time Source
KSLK TAF 2020/01/29 12:33 UTC NOAA

TAF KSLK 291131Z 2912/3012 VRB04KT P6SM SCT009 BKN024
TEMPO 2912/2915 BKN008
FM291500 32005KT P6SM SCT028
FM292200 VRB03KT P6SM SKC

Example: see airport list